Time;durP1;ratioP1;P1;durP2;ratioP2;P2;SDS_P1;SDS_P2;PMS_P1;PMS_P2;Temp;Humidity;BMP_temperature;BMP_pressure;BME280_temperature;BME280_humidity;BME280_pressure;Samples;Min_cycle;Max_cycle;Signal;HPM_P1;HPM_P2
2022/02/05 00:02:29;;;;;;;21.70;3.08;;;3.90;99.90;;;;;;5079858;28;20102;-79
2022/02/05 00:04:56;;;;;;;14.57;2.78;;;3.90;99.90;;;;;;5083451;28;20032;-79
2022/02/05 00:07:23;;;;;;;17.02;2.83;;;3.90;99.90;;;;;;5085197;28;20036;-80
2022/02/05 00:42:08;;;;;;;17.83;2.58;;;3.90;99.90;;;;;;5078990;28;20294;-78
2022/02/05 00:44:34;;;;;;;21.58;2.60;;;4.30;99.90;;;;;;5074100;28;20039;-79
2022/02/05 00:47:00;;;;;;;23.80;2.58;;;4.00;99.90;;;;;;5083915;28;20036;-80
2022/02/05 00:49:26;;;;;;;21.05;2.75;;;4.00;99.90;;;;;;5079601;28;20032;-80
2022/02/05 00:52:03;;;;;;;14.57;2.20;;;4.10;99.90;;;;;;5082899;28;20037;-80
2022/02/05 00:54:28;;;;;;;19.95;2.05;;;4.10;99.90;;;;;;5076124;28;20071;-79
2022/02/05 00:59:29;;;;;;;8.10;1.50;;;4.20;99.90;;;;;;5090270;28;20386;-80
2022/02/05 01:01:54;;;;;;;17.48;2.35;;;4.30;99.90;;;;;;5084347;28;20032;-79
2022/02/05 01:04:20;;;;;;;18.58;2.53;;;4.30;99.90;;;;;;5088607;28;20489;-78
2022/02/05 01:06:45;;;;;;;13.48;1.85;;;4.50;99.90;;;;;;5085416;28;20036;-78
2022/02/05 01:09:18;;;;;;;10.98;2.47;;;4.30;99.90;;;;;;5082488;28;20036;-79
2022/02/05 01:11:44;;;;;;;16.92;2.00;;;4.30;99.90;;;;;;5086412;28;20039;-80
2022/02/05 01:14:13;;;;;;;20.52;2.75;;;4.30;99.90;;;;;;5082225;28;20047;-79
2022/02/05 01:19:43;;;;;;;13.63;2.10;;;4.40;99.90;;;;;;5085337;28;20552;-79
2022/02/05 01:22:04;;;;;;;21.23;2.75;;;4.50;99.90;;;;;;5076943;28;20047;-79
2022/02/05 01:24:30;;;;;;;27.20;3.10;;;4.50;99.90;;;;;;5088911;28;20348;-78
2022/02/05 01:27:03;;;;;;;25.17;3.40;;;4.50;99.90;;;;;;5091616;28;20035;-78
2022/02/05 01:32:01;;;;;;;24.73;3.08;;;4.20;99.90;;;;;;5089830;28;20055;-78
2022/02/05 02:12:10;;;;;;;23.70;3.03;;;4.20;99.90;;;;;;5089835;28;20489;-78
2022/02/05 02:23:06;;;;;;;24.20;2.83;;;4.30;99.90;;;;;;5051236;28;20376;-79
2022/02/05 02:30:30;;;;;;;28.30;2.63;;;4.20;99.90;;;;;;5061235;28;20048;-78
2022/02/05 02:33:08;;;;;;;19.23;2.55;;;4.20;99.90;;;;;;5053669;28;20044;-80
2022/02/05 02:35:40;;;;;;;25.65;2.97;;;4.10;99.90;;;;;;5055344;28;21949;-79
2022/02/05 02:38:11;;;;;;;17.48;2.20;;;4.10;99.90;;;;;;5061578;28;20127;-81
2022/02/05 02:40:45;;;;;;;21.17;2.58;;;4.50;99.90;;;;;;5059642;28;20044;-80
2022/02/05 02:43:17;;;;;;;26.15;2.95;;;4.10;99.90;;;;;;5055194;28;20040;-79
2022/02/05 02:45:45;;;;;;;20.55;3.03;;;4.10;99.90;;;;;;5067626;28;20083;-79
2022/02/05 02:48:12;;;;;;;25.20;2.95;;;4.70;99.90;;;;;;5032204;28;20432;-79
2022/02/05 02:58:53;;;;;;;26.77;3.65;;;4.20;99.90;;;;;;5068088;28;20432;-80
2022/02/05 03:01:20;;;;;;;24.85;3.20;;;4.20;99.90;;;;;;5090207;28;20126;-78
2022/02/05 03:03:46;;;;;;;25.27;2.83;;;4.20;99.90;;;;;;5094086;28;20552;-78
2022/02/05 03:06:12;;;;;;;23.50;2.90;;;4.20;99.90;;;;;;5091275;28;20043;-78
2022/02/05 03:08:39;;;;;;;16.52;2.47;;;4.10;99.90;;;;;;5073043;28;20237;-79
2022/02/05 03:11:04;;;;;;;22.77;2.70;;;4.20;99.90;;;;;;5092623;28;20038;-80
2022/02/05 03:13:30;;;;;;;18.50;2.53;;;4.20;99.90;;;;;;5100539;28;20352;-79
2022/02/05 03:15:56;;;;;;;23.45;3.33;;;4.10;99.90;;;;;;5089796;28;20036;-80
2022/02/05 03:18:31;;;;;;;27.15;2.78;;;4.20;99.90;;;;;;5084975;28;20096;-79
2022/02/05 03:20:57;;;;;;;18.02;2.95;;;4.10;99.90;;;;;;5076992;28;20385;-80
2022/02/05 03:23:23;;;;;;;23.90;2.58;;;4.20;99.90;;;;;;5075535;28;20088;-80
2022/02/05 03:25:48;;;;;;;18.83;2.65;;;4.10;99.90;;;;;;5088665;28;20490;-81
2022/02/05 03:28:14;;;;;;;28.80;3.15;;;4.10;99.90;;;;;;5064645;28;20028;-78
2022/02/05 03:30:40;;;;;;;19.77;2.90;;;4.20;99.90;;;;;;5067050;28;20146;-78
2022/02/05 03:33:05;;;;;;;24.50;3.00;;;4.10;99.90;;;;;;5095179;28;20483;-80
2022/02/05 03:35:31;;;;;;;14.10;2.50;;;4.10;99.90;;;;;;5086311;28;20468;-79
2022/02/05 03:37:57;;;;;;;19.67;2.60;;;4.10;99.90;;;;;;5075925;28;20048;-78
2022/02/05 03:40:22;;;;;;;20.35;2.35;;;4.20;99.90;;;;;;5085719;28;20048;-78
2022/02/05 03:42:48;;;;;;;21.25;3.03;;;4.10;99.90;;;;;;5093444;28;20039;-78
2022/02/05 03:45:15;;;;;;;18.33;3.08;;;4.10;99.90;;;;;;5084292;28;20074;-79
2022/02/05 03:47:41;;;;;;;17.33;2.38;;;4.10;99.90;;;;;;5082549;28;20040;-78
2022/02/05 03:50:07;;;;;;;17.52;2.85;;;4.10;99.90;;;;;;5056830;28;20400;-77
2022/02/05 03:52:33;;;;;;;26.48;2.83;;;4.10;99.90;;;;;;5082067;28;20044;-78
2022/02/05 03:54:59;;;;;;;24.70;2.65;;;4.10;99.90;;;;;;5069880;28;20385;-79
2022/02/05 03:57:24;;;;;;;13.93;2.38;;;4.10;99.90;;;;;;5086726;28;20058;-79
2022/02/05 03:59:50;;;;;;;18.85;2.60;;;4.10;99.90;;;;;;5083045;28;20445;-78
2022/02/05 04:02:16;;;;;;;14.63;2.20;;;3.90;99.90;;;;;;5093340;28;20114;-79
2022/02/05 04:04:42;;;;;;;13.70;2.35;;;4.00;99.90;;;;;;5076140;28;20063;-78
2022/02/05 04:07:08;;;;;;;19.10;2.72;;;4.00;99.90;;;;;;5086804;28;20438;-78
2022/02/05 04:09:37;;;;;;;20.08;2.75;;;3.90;99.90;;;;;;5069469;28;20483;-79
2022/02/05 04:17:51;;;;;;;14.43;1.98;;;3.90;99.90;;;;;;5031315;28;20049;-79
2022/02/05 04:20:17;;;;;;;15.13;2.28;;;3.90;99.90;;;;;;5030143;28;20060;-79
2022/02/05 04:22:42;;;;;;;22.00;2.80;;;3.90;99.90;;;;;;5027732;28;20140;-79
2022/02/05 04:25:10;;;;;;;25.08;2.92;;;3.90;99.90;;;;;;5032117;28;20039;-78
2022/02/05 04:27:36;;;;;;;18.85;2.33;;;3.80;99.90;;;;;;5032295;28;20056;-79
2022/02/05 04:30:03;;;;;;;21.02;2.40;;;3.80;99.90;;;;;;5029446;28;20044;-78
2022/02/05 04:32:29;;;;;;;17.40;2.35;;;3.80;99.90;;;;;;5048065;28;20080;-78
2022/02/05 04:34:54;;;;;;;15.55;1.88;;;3.70;99.90;;;;;;5029254;28;20165;-78
2022/02/05 04:37:23;;;;;;;15.57;2.05;;;3.70;99.90;;;;;;5030306;28;20052;-79
2022/02/05 04:40:00;;;;;;;19.55;2.13;;;3.70;99.90;;;;;;5027085;28;20103;-78
2022/02/05 04:42:37;;;;;;;25.17;2.58;;;3.60;99.90;;;;;;5020844;28;20045;-78
2022/02/05 05:04:31;;;;;;;14.45;2.00;;;3.40;99.90;;;;;;5011333;28;20037;-79
2022/02/05 05:20:16;;;;;;;20.80;2.33;;;3.10;99.90;;;;;;5010094;28;20051;-79
2022/02/05 05:22:42;;;;;;;16.90;2.30;;;3.00;99.90;;;;;;4996554;28;20037;-78
2022/02/05 05:25:08;;;;;;;15.15;2.30;;;3.00;99.90;;;;;;5022837;28;20037;-79
2022/02/05 05:27:34;;;;;;;17.20;2.40;;;3.00;99.90;;;;;;5033230;28;20072;-79
2022/02/05 05:30:00;;;;;;;20.45;2.65;;;2.90;99.90;;;;;;5042633;28;20106;-77
2022/02/05 05:32:26;;;;;;;15.90;2.20;;;3.00;99.90;;;;;;5079237;28;20050;-79
2022/02/05 05:34:52;;;;;;;19.42;2.25;;;2.90;99.90;;;;;;5065438;28;20421;-78
2022/02/05 05:37:20;;;;;;;21.20;2.40;;;2.90;99.90;;;;;;5066610;28;20093;-79
2022/02/05 05:39:47;;;;;;;16.55;1.92;;;2.80;99.90;;;;;;5083826;28;20040;-79
2022/02/05 05:42:19;;;;;;;26.98;2.60;;;2.80;99.90;;;;;;5080598;28;20036;-79
2022/02/05 05:50:35;;;;;;;17.77;2.80;;;2.90;99.90;;;;;;5051630;28;20101;-78
2022/02/05 05:52:56;;;;;;;19.55;2.85;;;2.80;99.90;;;;;;5051529;28;20131;-79
2022/02/05 05:55:22;;;;;;;20.00;2.50;;;2.80;99.90;;;;;;5056565;28;20446;-79
2022/02/05 05:57:47;;;;;;;12.70;2.08;;;2.80;99.90;;;;;;5053844;28;20040;-80
2022/02/05 06:00:14;;;;;;;19.63;2.35;;;2.70;99.90;;;;;;5037624;28;20072;-79
2022/02/05 06:02:39;;;;;;;16.42;2.50;;;2.70;99.90;;;;;;5050935;28;20420;-77
2022/02/05 06:05:06;;;;;;;19.50;2.30;;;2.60;99.90;;;;;;5062007;28;20067;-77
2022/02/05 06:07:31;;;;;;;22.52;2.45;;;2.60;99.90;;;;;;5029465;28;20518;-79
2022/02/05 06:09:57;;;;;;;15.25;2.20;;;2.60;99.90;;;;;;5033568;28;20048;-78
2022/02/05 06:12:22;;;;;;;24.30;2.80;;;2.60;99.90;;;;;;5037420;28;20114;-78
2022/02/05 06:14:48;;;;;;;18.55;2.47;;;2.60;99.90;;;;;;5053295;28;20127;-78
2022/02/05 06:17:21;;;;;;;15.85;2.30;;;2.50;99.90;;;;;;5051857;28;20543;-79
2022/02/05 06:19:48;;;;;;;21.10;2.88;;;2.50;99.90;;;;;;5049422;28;20049;-80
2022/02/05 06:22:14;;;;;;;19.67;2.13;;;2.60;99.90;;;;;;5047250;28;20051;-79
2022/02/05 06:24:40;;;;;;;20.35;2.55;;;2.60;99.90;;;;;;5047683;28;20032;-78
2022/02/05 06:27:07;;;;;;;21.00;2.70;;;2.70;99.90;;;;;;5092816;28;20035;-78
2022/02/05 06:29:33;;;;;;;24.45;3.55;;;2.80;99.90;;;;;;5081123;28;20048;-77
2022/02/05 06:32:00;;;;;;;18.55;2.40;;;2.90;99.90;;;;;;5084964;28;20036;-80
2022/02/05 06:34:25;;;;;;;17.55;2.17;;;3.10;99.90;;;;;;5069819;28;20048;-79
2022/02/05 06:36:51;;;;;;;16.65;1.85;;;3.20;99.90;;;;;;5087220;28;20036;-79
2022/02/05 06:39:17;;;;;;;17.65;2.47;;;3.30;99.90;;;;;;5086120;28;20324;-78
2022/02/05 06:41:43;;;;;;;22.70;2.28;;;3.20;99.90;;;;;;5070063;28;20395;-78
2022/02/05 06:44:09;;;;;;;16.15;2.10;;;3.20;99.90;;;;;;5062158;28;22198;-77
2022/02/05 06:46:34;;;;;;;11.98;1.80;;;3.20;99.90;;;;;;5066289;28;20403;-78
2022/02/05 06:49:00;;;;;;;19.70;2.80;;;3.10;99.90;;;;;;5066343;28;20059;-76
2022/02/05 06:51:26;;;;;;;16.85;2.67;;;3.50;99.90;;;;;;5071596;28;20463;-77
2022/02/05 06:53:51;;;;;;;16.35;2.17;;;3.00;99.90;;;;;;5093736;28;20097;-78
2022/02/05 06:56:17;;;;;;;19.02;2.53;;;3.10;99.90;;;;;;5076916;28;20036;-76
2022/02/05 06:58:43;;;;;;;22.63;2.53;;;3.00;99.90;;;;;;5093380;28;20059;-79
2022/02/05 07:01:08;;;;;;;16.13;2.13;;;3.00;99.90;;;;;;5091676;28;20040;-78
2022/02/05 07:03:34;;;;;;;19.95;2.63;;;2.90;99.90;;;;;;5067566;28;20046;-78
2022/02/05 07:05:59;;;;;;;21.10;3.00;;;2.90;99.90;;;;;;5071708;28;20123;-78
2022/02/05 07:08:25;;;;;;;25.40;3.33;;;2.80;99.90;;;;;;5070360;28;20444;-77
2022/02/05 07:10:52;;;;;;;20.90;2.80;;;2.90;99.90;;;;;;5055366;28;20035;-79
2022/02/05 07:13:19;;;;;;;20.20;2.70;;;3.00;99.90;;;;;;5070927;28;20135;-78
2022/02/05 07:15:55;;;;;;;24.27;2.42;;;2.90;99.90;;;;;;5098099;28;20045;-79
2022/02/05 07:18:40;;;;;;;29.25;2.97;;;2.80;99.90;;;;;;5076948;28;20045;-78
2022/02/05 07:21:14;;;;;;;24.05;2.90;;;2.90;99.90;;;;;;5073662;28;20415;-81
2022/02/05 07:23:56;;;;;;;19.30;2.60;;;2.80;99.90;;;;;;5096331;28;20336;-86
2022/02/05 07:29:17;;;;;;;21.98;2.63;;;3.30;99.90;;;;;;5083850;28;20076;-78
2022/02/05 07:31:46;;;;;;;25.85;2.75;;;3.20;99.90;;;;;;5076221;28;20153;-76
2022/02/05 07:34:13;;;;;;;30.70;3.10;;;3.10;99.90;;;;;;5089907;28;20395;-79
2022/02/05 07:36:39;;;;;;;17.60;2.35;;;3.10;99.90;;;;;;5071015;28;20039;-77
2022/02/05 07:39:06;;;;;;;18.58;2.20;;;3.00;99.90;;;;;;5082696;28;20392;-75
2022/02/05 07:41:36;;;;;;;25.02;2.47;;;3.00;99.90;;;;;;5057827;28;20040;-79
2022/02/05 07:44:05;;;;;;;22.02;2.00;;;3.00;99.90;;;;;;5065637;28;20386;-79
2022/02/05 07:46:30;;;;;;;20.17;2.50;;;2.90;99.90;;;;;;5079758;28;20086;-80
2022/02/05 07:48:56;;;;;;;16.50;2.22;;;3.00;99.90;;;;;;5066044;28;20750;-79
2022/02/05 07:51:22;;;;;;;19.13;2.90;;;2.90;99.90;;;;;;5091907;28;20081;-80
2022/02/05 07:53:48;;;;;;;21.63;2.00;;;2.90;99.90;;;;;;5089847;28;20031;-79
2022/02/05 07:56:14;;;;;;;20.75;2.50;;;2.90;99.90;;;;;;5095664;28;20055;-78
2022/02/05 07:58:40;;;;;;;21.23;1.92;;;2.90;99.90;;;;;;5112943;27;20046;-80
2022/02/05 08:01:06;;;;;;;21.83;2.70;;;2.90;99.90;;;;;;5076932;28;20067;-78
2022/02/05 08:03:38;;;;;;;15.88;2.15;;;3.00;99.90;;;;;;5086932;28;20332;-80
2022/02/05 08:14:36;;;;;;;18.33;2.47;;;2.30;99.90;;;;;;4948923;29;20074;-80
2022/02/05 08:17:14;;;;;;;26.03;2.70;;;2.80;99.90;;;;;;4932736;29;20043;-78
2022/02/05 08:19:40;;;;;;;20.02;2.72;;;3.20;99.90;;;;;;4933498;29;20134;-80
2022/02/05 08:22:21;;;;;;;17.08;2.67;;;4.30;99.90;;;;;;4919387;29;20126;-79
2022/02/05 08:24:50;;;;;;;17.67;2.60;;;3.20;99.90;;;;;;4928495;29;20047;-77
2022/02/05 08:30:18;;;;;;;17.23;2.63;;;3.50;99.90;;;;;;4946546;28;20947;-79
2022/02/05 08:32:45;;;;;;;27.38;3.45;;;3.30;99.90;;;;;;4919167;29;20063;-79
2022/02/05 08:35:11;;;;;;;22.15;2.72;;;3.40;99.90;;;;;;4935428;29;20057;-80
2022/02/05 08:37:45;;;;;;;19.13;2.42;;;3.50;99.90;;;;;;4933865;29;20063;-79
2022/02/05 08:40:12;;;;;;;28.05;3.30;;;3.50;99.90;;;;;;4920890;29;20119;-81
2022/02/05 08:42:38;;;;;;;22.30;3.00;;;3.60;99.90;;;;;;4934874;29;20202;-78
2022/02/05 08:45:04;;;;;;;18.75;2.70;;;3.60;99.90;;;;;;4929114;29;20355;-78
2022/02/05 08:47:31;;;;;;;25.17;2.60;;;3.60;99.90;;;;;;4934129;29;20047;-80
2022/02/05 08:49:56;;;;;;;21.38;2.55;;;3.60;99.90;;;;;;4941649;28;20117;-80
2022/02/05 08:52:23;;;;;;;26.02;3.45;;;3.60;99.90;;;;;;5002557;28;20053;-80
2022/02/05 08:54:49;;;;;;;22.60;2.83;;;3.80;99.90;;;;;;4994623;28;20041;-79
2022/02/05 08:57:15;;;;;;;30.65;3.28;;;3.90;99.90;;;;;;4997175;28;20052;-80
2022/02/05 09:02:20;;;;;;;22.75;3.08;;;4.00;99.90;;;;;;5006326;28;20523;-77
2022/02/05 09:07:11;;;;;;;25.40;3.15;;;4.10;99.90;;;;;;5013766;28;20049;-79
2022/02/05 09:10:02;;;;;;;22.05;3.53;;;4.10;99.90;;;;;;5012211;28;20033;-79
2022/02/05 09:15:00;;;;;;;25.63;3.50;;;4.30;99.90;;;;;;5013388;28;20046;-80
2022/02/05 09:17:27;;;;;;;27.77;3.58;;;4.30;99.90;;;;;;5013877;28;20053;-80
2022/02/05 09:19:52;;;;;;;23.30;3.70;;;4.50;99.90;;;;;;4997214;28;20053;-80
2022/02/05 09:22:18;;;;;;;24.73;4.05;;;4.50;99.90;;;;;;4996219;28;20167;-79
2022/02/05 09:24:44;;;;;;;32.03;4.05;;;4.60;99.90;;;;;;5010217;28;20041;-81
2022/02/05 09:27:12;;;;;;;22.88;3.65;;;3.90;99.90;;;;;;5014048;28;20050;-79
2022/02/05 09:30:04;;;;;;;21.10;2.90;;;4.60;99.90;;;;;;5013624;28;20132;-80
2022/02/05 09:32:27;;;;;;;24.50;3.42;;;4.70;99.90;;;;;;5028976;28;20075;-78
2022/02/05 09:34:53;;;;;;;17.33;3.45;;;4.80;99.90;;;;;;5012488;28;20128;-78
2022/02/05 09:37:20;;;;;;;31.77;3.22;;;4.90;99.90;;;;;;5007187;28;20077;-80
2022/02/05 09:39:46;;;;;;;27.05;4.03;;;5.00;99.90;;;;;;5013339;28;20091;-78
2022/02/05 09:42:12;;;;;;;19.35;3.10;;;5.00;99.90;;;;;;4996924;28;20061;-79
2022/02/05 09:44:38;;;;;;;22.67;3.00;;;5.10;99.90;;;;;;4997667;28;20057;-79
2022/02/05 09:47:04;;;;;;;29.08;4.30;;;5.20;99.90;;;;;;5013189;28;20038;-77
2022/02/05 09:49:30;;;;;;;24.60;3.30;;;5.30;99.90;;;;;;5031402;28;20099;-75
2022/02/05 09:52:12;;;;;;;24.50;3.17;;;5.40;99.90;;;;;;5000489;28;20099;-79
2022/02/05 09:54:40;;;;;;;20.10;3.08;;;5.50;99.90;;;;;;4998835;28;20037;-78
2022/02/05 09:57:06;;;;;;;25.75;3.22;;;5.50;99.90;;;;;;5012731;28;20046;-76
2022/02/05 09:59:46;;;;;;;26.77;3.13;;;5.50;99.90;;;;;;5013053;28;20405;-77
2022/02/05 10:02:23;;;;;;;26.60;4.03;;;5.60;99.90;;;;;;5015979;28;20397;-78
2022/02/05 10:05:04;;;;;;;33.83;3.28;;;5.70;99.90;;;;;;4996221;28;20045;-78
2022/02/05 10:07:31;;;;;;;26.02;3.60;;;5.80;99.90;;;;;;5016348;28;20051;-77
2022/02/05 10:10:02;;;;;;;27.75;4.13;;;5.90;99.90;;;;;;5016029;28;20068;-79
2022/02/05 10:12:28;;;;;;;19.35;3.40;;;6.20;99.90;;;;;;4997521;28;20050;-79
2022/02/05 10:14:57;;;;;;;26.70;3.78;;;6.20;99.90;;;;;;5006789;28;20096;-77
2022/02/05 10:17:45;;;;;;;21.23;3.00;;;6.20;99.90;;;;;;4988505;28;20117;-78
2022/02/05 10:20:13;;;;;;;20.88;3.53;;;6.40;99.90;;;;;;4996617;28;20047;-80
2022/02/05 10:22:46;;;;;;;22.27;3.70;;;6.40;99.90;;;;;;4980468;28;20417;-83
2022/02/05 10:25:19;;;;;;;25.42;2.55;;;6.30;99.90;;;;;;4976967;28;20114;-81
2022/02/05 10:27:47;;;;;;;19.27;2.95;;;6.40;99.90;;;;;;5010537;28;20095;-80
2022/02/05 10:30:29;;;;;;;34.78;3.45;;;6.50;99.90;;;;;;5003347;28;20338;-80
2022/02/05 10:32:59;;;;;;;28.88;3.97;;;6.30;99.90;;;;;;4980669;28;20124;-80
2022/02/05 10:35:33;;;;;;;19.67;2.88;;;6.30;99.90;;;;;;4997309;28;20065;-79
2022/02/05 10:43:08;;;;;;;28.88;3.60;;;6.40;99.90;;;;;;5007324;28;20052;-78
2022/02/05 10:45:51;;;;;;;24.35;3.65;;;6.50;99.90;;;;;;4997445;28;20145;-78
2022/02/05 10:48:23;;;;;;;19.25;2.65;;;6.50;99.90;;;;;;4996473;28;20081;-79
2022/02/05 10:50:52;;;;;;;18.75;2.83;;;6.60;99.90;;;;;;4983002;28;20088;-81
2022/02/05 11:07:10;;;;;;;16.90;2.88;;;6.60;99.90;;;;;;4996094;28;20332;-78
2022/02/05 11:09:38;;;;;;;19.30;2.80;;;6.70;99.90;;;;;;4984378;28;20049;-81
2022/02/05 11:20:06;;;;;;;18.90;2.90;;;6.70;99.90;;;;;;5015939;28;20525;-80
2022/02/05 11:22:44;;;;;;;24.38;3.38;;;6.70;99.90;;;;;;4997370;28;20046;-81
2022/02/05 11:25:12;;;;;;;20.45;3.10;;;6.70;99.90;;;;;;4997621;28;20057;-79
2022/02/05 11:27:43;;;;;;;30.30;3.63;;;6.70;99.90;;;;;;5013145;28;20469;-78
2022/02/05 11:30:31;;;;;;;25.67;3.20;;;6.70;99.90;;;;;;5024298;28;20055;-79
2022/02/05 11:33:05;;;;;;;22.35;3.42;;;6.70;99.90;;;;;;5013981;28;20050;-80
2022/02/05 11:35:58;;;;;;;17.45;3.40;;;7.00;99.90;;;;;;4997839;28;20141;-79
2022/02/05 11:38:31;;;;;;;22.73;2.85;;;6.80;99.90;;;;;;5010983;28;20057;-78
2022/02/05 11:40:59;;;;;;;15.70;2.40;;;6.70;99.90;;;;;;5017233;28;20039;-78
2022/02/05 11:43:38;;;;;;;11.77;2.70;;;6.70;99.90;;;;;;5016541;28;20069;-82
2022/02/05 11:46:15;;;;;;;20.92;3.25;;;6.70;99.90;;;;;;4993320;28;20029;-80
2022/02/05 11:48:49;;;;;;;18.50;2.58;;;6.70;99.90;;;;;;5012016;28;20393;-80
2022/02/05 11:51:17;;;;;;;26.85;3.47;;;7.40;99.90;;;;;;5003724;28;20461;-80
2022/02/05 11:53:58;;;;;;;25.92;3.40;;;6.60;99.90;;;;;;4998307;28;20161;-80
2022/02/05 11:56:48;;;;;;;23.73;2.92;;;7.10;99.90;;;;;;4989286;28;20030;-81
2022/02/05 11:59:15;;;;;;;15.70;2.47;;;6.60;99.90;;;;;;4995440;28;20586;-81
2022/02/05 12:01:42;;;;;;;19.45;3.08;;;7.60;99.90;;;;;;5015033;28;20049;-82
2022/02/05 12:04:17;;;;;;;26.00;2.80;;;6.70;99.90;;;;;;4998230;28;20044;-82
2022/02/05 12:07:00;;;;;;;12.75;2.28;;;6.60;99.90;;;;;;5010439;28;20334;-81
2022/02/05 12:09:34;;;;;;;15.93;2.50;;;6.70;99.90;;;;;;4996503;28;20374;-80
2022/02/05 12:12:22;;;;;;;17.83;2.85;;;6.80;99.90;;;;;;5013467;28;20052;-80
2022/02/05 12:15:13;;;;;;;19.25;2.83;;;6.90;99.90;;;;;;4992271;28;20053;-81
2022/02/05 12:18:11;;;;;;;21.38;3.05;;;6.90;99.90;;;;;;5012614;28;20474;-81
2022/02/05 12:21:30;;;;;;;17.92;3.13;;;7.80;99.90;;;;;;5012549;28;20137;-80
2022/02/05 12:26:40;;;;;;;22.73;3.25;;;7.20;99.90;;;;;;5014314;28;20124;-81
2022/02/05 12:29:42;;;;;;;19.20;2.60;;;7.30;99.90;;;;;;5016114;28;20033;-81
2022/02/05 12:32:20;;;;;;;21.48;2.75;;;7.90;99.90;;;;;;5010615;28;20045;-81
2022/02/05 12:35:08;;;;;;;18.80;2.70;;;7.50;99.90;;;;;;4995718;28;20349;-80
2022/02/05 12:37:53;;;;;;;18.50;2.38;;;7.50;99.90;;;;;;4995051;28;20033;-81
2022/02/05 12:40:29;;;;;;;20.83;3.00;;;7.50;99.90;;;;;;5010943;28;20144;-81
2022/02/05 12:43:03;;;;;;;15.73;2.47;;;7.70;99.90;;;;;;4996575;28;20120;-81
2022/02/05 12:45:52;;;;;;;18.35;3.05;;;7.80;99.90;;;;;;4997779;28;20054;-80
2022/02/05 12:48:21;;;;;;;17.10;2.97;;;8.40;99.90;;;;;;5013849;28;20037;-81
2022/02/05 12:50:48;;;;;;;19.83;2.85;;;7.50;99.90;;;;;;4995146;28;20042;-81
2022/02/05 12:53:35;;;;;;;16.13;2.88;;;7.30;99.90;;;;;;4992404;28;20427;-80
2022/02/05 12:56:49;;;;;;;17.92;2.63;;;8.00;99.90;;;;;;4967993;28;20447;-80
2022/02/05 12:59:44;;;;;;;18.25;3.40;;;7.10;99.90;;;;;;4951382;28;20504;-83
2022/02/05 13:02:23;;;;;;;18.27;2.80;;;7.90;99.90;;;;;;4925992;28;20534;-77
2022/02/05 13:05:15;;;;;;;15.18;2.63;;;7.90;99.90;;;;;;4950032;28;20050;-78
2022/02/05 13:08:06;;;;;;;13.82;2.90;;;8.40;99.90;;;;;;4886337;29;20052;-79
2022/02/05 13:10:53;;;;;;;16.55;2.45;;;8.10;99.90;;;;;;4877466;29;20060;-79
2022/02/05 13:17:21;;;;;;;14.00;2.30;;;7.50;99.90;;;;;;4889228;29;20492;-79
2022/02/05 13:20:15;;;;;;;12.20;2.28;;;8.10;99.90;;;;;;4841101;29;20132;-81
2022/02/05 13:39:57;;;;;;;21.88;2.63;;;7.90;99.90;;;;;;4856337;29;20040;-80
2022/02/05 13:42:27;;;;;;;14.05;2.60;;;7.80;99.90;;;;;;4836357;29;20065;-80
2022/02/05 13:47:32;;;;;;;16.85;2.30;;;7.90;99.90;;;;;;4879987;29;20405;-76
2022/02/05 13:50:20;;;;;;;16.08;2.63;;;7.80;99.90;;;;;;4885651;29;20131;-81
2022/02/05 13:52:51;;;;;;;19.45;3.10;;;7.80;99.90;;;;;;4903314;29;20055;-80
2022/02/05 13:55:28;;;;;;;19.80;2.90;;;7.70;99.90;;;;;;4954485;28;20067;-81
2022/02/05 13:58:04;;;;;;;12.38;2.42;;;7.60;99.90;;;;;;4953442;29;20850;-80
2022/02/05 14:00:49;;;;;;;16.13;2.30;;;7.50;99.90;;;;;;4923323;29;20090;-80
2022/02/05 14:03:28;;;;;;;17.38;2.55;;;7.50;99.90;;;;;;4940568;29;20451;-81
2022/02/05 14:06:08;;;;;;;13.45;2.33;;;7.40;99.90;;;;;;4935223;29;20051;-79
2022/02/05 14:08:44;;;;;;;15.80;2.63;;;7.40;99.90;;;;;;4989962;28;20145;-81
2022/02/05 14:11:12;;;;;;;17.17;3.30;;;7.40;99.90;;;;;;4996923;28;20462;-81
2022/02/05 14:13:39;;;;;;;12.88;2.30;;;7.40;99.90;;;;;;5008100;28;20069;-81
2022/02/05 14:16:06;;;;;;;16.42;2.15;;;7.40;99.90;;;;;;4999947;28;20049;-81
2022/02/05 14:18:57;;;;;;;11.38;1.88;;;7.70;99.90;;;;;;5000019;28;20045;-80
2022/02/05 14:21:44;;;;;;;13.02;2.17;;;7.50;99.90;;;;;;5015476;28;20041;-80
2022/02/05 14:24:29;;;;;;;15.80;2.47;;;7.40;99.90;;;;;;4998448;28;20091;-79
2022/02/05 14:27:10;;;;;;;13.32;2.25;;;7.40;99.90;;;;;;5014776;28;20049;-79
2022/02/05 14:32:43;;;;;;;12.95;2.20;;;7.30;99.90;;;;;;5003057;28;20041;-80
2022/02/05 14:35:21;;;;;;;10.07;1.65;;;7.50;99.90;;;;;;5013694;28;20137;-81
2022/02/05 14:40:44;;;;;;;16.52;2.38;;;7.30;99.90;;;;;;5030936;28;20041;-78
2022/02/05 14:43:14;;;;;;;11.30;1.95;;;7.30;99.90;;;;;;5014443;28;20072;-78
2022/02/05 14:45:40;;;;;;;16.23;2.22;;;7.20;99.90;;;;;;4995123;28;20048;-78
2022/02/05 14:48:06;;;;;;;14.82;1.92;;;7.30;99.90;;;;;;5013138;28;20385;-78
2022/02/05 14:50:32;;;;;;;15.70;2.17;;;7.10;99.90;;;;;;5012978;28;20385;-79
2022/02/05 14:52:57;;;;;;;19.75;2.55;;;7.20;99.90;;;;;;5012514;28;20056;-77
2022/02/05 14:55:23;;;;;;;12.07;1.80;;;7.10;99.90;;;;;;4996298;28;20049;-78
2022/02/05 14:57:49;;;;;;;9.35;2.00;;;7.00;99.90;;;;;;4998368;28;20080;-78
2022/02/05 15:00:15;;;;;;;13.52;2.08;;;7.00;99.90;;;;;;5014763;28;20041;-77
2022/02/05 15:02:41;;;;;;;12.40;2.10;;;7.00;99.90;;;;;;4999140;28;20057;-77
2022/02/05 15:05:11;;;;;;;16.67;2.15;;;7.00;99.90;;;;;;5014268;28;20100;-77
2022/02/05 15:07:41;;;;;;;14.98;2.35;;;7.00;99.90;;;;;;4997759;28;20053;-76
2022/02/05 15:10:10;;;;;;;16.98;2.38;;;7.00;99.90;;;;;;4996569;28;20048;-80
2022/02/05 15:12:37;;;;;;;17.58;2.42;;;7.00;99.90;;;;;;5013516;28;20077;-80
2022/02/05 15:15:10;;;;;;;14.88;2.50;;;7.10;99.90;;;;;;5013898;28;20057;-81
2022/02/05 15:17:41;;;;;;;20.52;2.50;;;7.00;99.90;;;;;;5012773;28;20139;-79
2022/02/05 15:20:08;;;;;;;17.60;2.50;;;7.10;99.90;;;;;;5014491;28;20045;-78
2022/02/05 15:22:33;;;;;;;20.10;2.78;;;7.00;99.90;;;;;;5020667;28;20072;-79
2022/02/05 15:24:59;;;;;;;19.40;2.42;;;6.90;99.90;;;;;;5024977;28;20053;-80
2022/02/05 15:27:25;;;;;;;15.73;2.10;;;7.00;99.90;;;;;;5012902;28;20049;-79
2022/02/05 15:29:51;;;;;;;19.00;2.17;;;6.90;99.90;;;;;;4996767;28;20049;-79
2022/02/05 15:32:16;;;;;;;12.95;2.03;;;6.90;99.90;;;;;;4996009;28;20196;-79
2022/02/05 15:34:44;;;;;;;14.10;2.90;;;6.90;99.90;;;;;;4996989;28;20365;-81
2022/02/05 15:37:16;;;;;;;19.38;2.25;;;6.80;99.90;;;;;;5034942;28;20045;-79
2022/02/05 15:45:15;;;;;;;16.85;2.95;;;6.80;99.90;;;;;;4919881;29;20626;-80
2022/02/05 15:47:40;;;;;;;13.27;2.33;;;6.80;99.90;;;;;;4921596;29;20058;-78
2022/02/05 15:50:09;;;;;;;15.70;2.17;;;6.80;99.90;;;;;;4920867;29;20477;-79
2022/02/05 15:52:37;;;;;;;16.80;2.70;;;6.80;99.90;;;;;;4931879;29;20398;-79
2022/02/05 15:55:03;;;;;;;11.80;2.00;;;6.80;99.90;;;;;;4929440;29;20477;-80
2022/02/05 15:58:01;;;;;;;13.70;1.88;;;6.70;99.90;;;;;;4916146;29;20491;-80
2022/02/05 16:00:32;;;;;;;19.77;2.58;;;6.70;99.90;;;;;;4917086;29;20705;-80
2022/02/05 16:03:01;;;;;;;17.20;2.88;;;6.80;99.90;;;;;;4934910;29;20083;-80
2022/02/05 16:05:28;;;;;;;26.50;11.30;;;6.70;99.90;;;;;;4930297;29;20098;-81
2022/02/05 16:07:53;;;;;;;16.35;3.10;;;6.60;99.90;;;;;;4911546;29;20051;-81
2022/02/05 16:10:22;;;;;;;17.45;3.70;;;6.70;99.90;;;;;;4912482;29;20086;-80
2022/02/05 16:12:53;;;;;;;17.75;3.58;;;6.70;99.90;;;;;;4898750;29;20413;-81
2022/02/05 16:15:18;;;;;;;18.25;3.80;;;6.60;99.90;;;;;;4897953;29;20062;-77
2022/02/05 16:17:45;;;;;;;17.90;5.40;;;6.60;99.90;;;;;;4906445;29;20051;-77
2022/02/05 16:20:12;;;;;;;23.92;6.00;;;6.60;99.90;;;;;;4969013;28;20049;-77
2022/02/05 16:22:39;;;;;;;16.48;4.40;;;6.60;99.90;;;;;;4990887;28;20034;-77
2022/02/05 16:25:07;;;;;;;21.60;5.97;;;6.60;99.90;;;;;;4975804;28;20573;-78
2022/02/05 16:27:36;;;;;;;16.17;3.92;;;6.60;99.90;;;;;;4975305;28;20485;-78
2022/02/05 16:30:02;;;;;;;18.52;3.58;;;6.50;99.90;;;;;;4992987;28;20054;-79
2022/02/05 16:32:28;;;;;;;11.52;2.90;;;6.50;99.90;;;;;;4993051;28;20132;-79
2022/02/05 16:34:55;;;;;;;17.10;2.45;;;6.50;99.90;;;;;;4991150;28;20080;-78
2022/02/05 16:37:22;;;;;;;15.07;2.47;;;6.40;99.90;;;;;;4990661;28;20096;-80
2022/02/05 16:39:53;;;;;;;18.30;2.90;;;6.50;99.90;;;;;;4994957;28;20519;-81
2022/02/05 16:42:20;;;;;;;18.27;2.42;;;6.40;99.90;;;;;;4989970;28;20046;-79
2022/02/05 16:44:46;;;;;;;14.65;2.65;;;6.30;99.90;;;;;;4991067;28;20069;-80
2022/02/05 16:47:15;;;;;;;21.92;3.58;;;6.30;99.90;;;;;;4992570;28;20504;-80
2022/02/05 16:49:42;;;;;;;15.98;3.35;;;6.60;99.90;;;;;;5010609;28;20045;-79
2022/02/05 16:52:07;;;;;;;18.33;3.30;;;6.10;99.90;;;;;;4993230;28;20045;-79
2022/02/05 16:54:34;;;;;;;20.25;3.22;;;6.10;99.90;;;;;;4993321;28;20144;-78
2022/02/05 16:57:02;;;;;;;17.00;3.70;;;6.00;99.90;;;;;;4992315;28;20386;-79